Duke Street, Reading, Berkshire, RG1 4RU, United Kingdom

Reading Town Centre Webcam

Live Image

Oscura's Reading Webcam is aimed out of our top floor offices in Duke Street, central Reading town centre, Berkshire. Our camera is facing South West with a view of the Reading Oracle Shopping Centre.

Previous Hours

Current weather conditions and forecast for Reading, Berkshire

When Temp Weather Wind Cloud Humidity Rain Snow
Now 2C Cloudy 2mph NE 88% 82% 0% 0%
17 Nov 13:00 6C Cloudy 4mph NNE 87% 75% 0% 0%
17 Nov 16:00 6C Partly Cloudy 4mph NE 98% 83% 0% 0%
17 Nov 19:00 4C Partly Cloudy 2mph N 95% 91% 0% 0%
17 Nov 22:00 4C Partly Cloudy 4mph NNW 90% 95% 0% 0%
18 Nov 01:00 5C Intermittent Rain 8mph N 99% 95% 63% 0%
18 Nov 04:00 5C Intermittent Rain 13mph N 99% 90% 31% 0%
18 Nov 07:00 4C Partly Cloudy 11mph N 45% 94% 0% 0%
18 Nov 10:00 4C Fair 11mph N 38% 92% 31% 0%
18 Nov 13:00 6C Showers 11mph N 58% 82% 63% 0%
18 Nov 16:00 6C Showers 6mph N 66% 81% 31% 0%
18 Nov 19:00 4C Showers 4mph NNW 58% 86% 31% 0%
18 Nov 22:00 2C Light Sleet 2mph NNW 39% 94% 31% 0%
19 Nov 01:00 1C Fair 2mph WNW 26% 93% 25% 0%
19 Nov 04:00 1C Light Sleet 0mph SW 33% 93% 37% 0%
19 Nov 07:00 0C Fair 0mph WSW 6% 92% 0% 0%
19 Nov 10:00 1C Partly Cloudy 4mph ESE 50% 81% 0% 0%
19 Nov 13:00 5C Partly Cloudy 6mph SSE 66% 75% 0% 0%
19 Nov 16:00 4C Intermittent Rain 8mph SE 97% 92% 18% 0%
19 Nov 19:00 5C Intermittent Rain 6mph SE 93% 96% 18% 0%
19 Nov 23:00 5C Intermittent Rain 11mph SSE 83% 92% 18% 0%
20 Nov 02:00 6C Showers 13mph S 77% 89% 18% 0%
20 Nov 05:00 5C Cloudy 13mph S 97% 88% 0% 0%
20 Nov 08:00 5C Cloudy 11mph SSE 100% 83% 0% 0%
20 Nov 11:00 7C Partly Cloudy 15mph SSE 100% 79% 0% 0%


Oscura provide website development, web server hosting, Internet services and IT Support in Reading and the surrounding area.